createdAt,value
2023-03-17T00:00:29.453Z,59.91
2023-03-17T00:01:21.720Z,60.03
2023-03-17T00:02:13.286Z,60.41
2023-03-17T00:03:06.728Z,60.30
2023-03-17T00:03:58.719Z,59.92
2023-03-17T00:04:50.311Z,59.94
2023-03-17T00:05:42.638Z,59.83
2023-03-17T00:06:35.060Z,59.77
2023-03-17T00:07:26.872Z,59.74
2023-03-17T00:08:25.845Z,60.17
2023-03-17T00:09:19.063Z,60.02
2023-03-17T00:10:17.355Z,60.29
2023-03-17T00:11:17.567Z,60.12
2023-03-17T00:12:12.927Z,60.25
2023-03-17T00:13:04.705Z,60.09
2023-03-17T00:13:56.599Z,60.18
2023-03-17T00:14:48.757Z,60.41
2023-03-17T00:15:40.356Z,60.64
2023-03-17T00:16:38.807Z,60.86
2023-03-17T00:17:31.124Z,60.83
2023-03-17T00:18:23.733Z,60.86
2023-03-17T00:19:33.230Z,61.31
2023-03-17T00:20:31.151Z,60.77
2023-03-17T00:21:34.219Z,60.62
2023-03-17T00:22:26.426Z,60.87
2023-03-17T00:23:21.935Z,60.72
2023-03-17T00:24:15.184Z,61.18
2023-03-17T00:25:29.974Z,60.48
2023-03-17T00:26:23.398Z,60.85
2023-03-17T00:27:15.256Z,60.19
2023-03-17T00:28:15.345Z,60.45
2023-03-17T00:29:08.680Z,60.94
2023-03-17T00:30:00.184Z,60.96
2023-03-17T00:30:56.416Z,60.70
2023-03-17T00:31:49.402Z,60.81
2023-03-17T00:32:41.260Z,60.85
2023-03-17T00:33:37.050Z,61.15
2023-03-17T00:34:28.662Z,61.12
2023-03-17T00:35:23.708Z,61.05
2023-03-17T00:36:19.931Z,61.51
2023-03-17T00:37:12.763Z,61.77
2023-03-17T00:38:05.161Z,61.41
2023-03-17T00:38:58.343Z,61.62
2023-03-17T00:39:50.070Z,61.38
2023-03-17T00:41:36.135Z,61.93
2023-03-17T00:42:28.133Z,62.16
2023-03-17T00:43:19.763Z,61.45
2023-03-17T00:44:11.967Z,61.47
2023-03-17T00:45:03.758Z,61.48
2023-03-17T00:45:55.658Z,61.70
2023-03-17T00:46:49.060Z,61.85
2023-03-17T00:47:40.741Z,62.31
2023-03-17T00:48:32.396Z,62.20
2023-03-17T00:49:26.280Z,62.34
2023-03-17T00:50:22.295Z,62.65
2023-03-17T00:51:16.399Z,62.26
2023-03-17T00:52:08.688Z,62.36
2023-03-17T00:53:01.320Z,62.30
2023-03-17T00:53:52.888Z,62.85
2023-03-17T00:54:45.314Z,62.74
2023-03-17T00:55:37.216Z,62.04
2023-03-17T00:56:28.739Z,61.96
2023-03-17T00:57:20.231Z,61.94
2023-03-17T00:58:29.003Z,62.65
2023-03-17T00:59:27.553Z,62.53
2023-03-17T01:00:22.934Z,62.18
2023-03-17T01:01:14.960Z,62.96
2023-03-17T01:02:07.318Z,62.50
2023-03-17T01:02:59.237Z,62.27
2023-03-17T01:03:52.741Z,62.21
2023-03-17T01:04:49.990Z,62.45
2023-03-17T01:05:44.565Z,61.84
2023-03-17T01:06:37.883Z,61.53
2023-03-17T01:07:30.375Z,61.88
2023-03-17T01:08:23.614Z,61.76
2023-03-17T01:09:18.460Z,61.63
2023-03-17T01:10:21.346Z,61.70
2023-03-17T01:11:19.133Z,61.83
2023-03-17T01:12:14.029Z,61.86
2023-03-17T01:13:06.648Z,62.45
2023-03-17T01:13:58.990Z,62.02
2023-03-17T01:14:50.562Z,62.16
2023-03-17T01:15:45.813Z,62.11
2023-03-17T01:16:37.555Z,60.77
2023-03-17T01:17:29.191Z,61.23
2023-03-17T01:18:22.662Z,61.24
2023-03-17T01:19:14.783Z,61.33
2023-03-17T01:20:11.233Z,61.42
2023-03-17T01:21:03.210Z,61.24
2023-03-17T01:21:55.186Z,61.68
2023-03-17T01:22:47.932Z,61.85
2023-03-17T01:23:39.523Z,62.00
2023-03-17T01:24:31.762Z,62.08
2023-03-17T01:25:23.570Z,62.03
2023-03-17T01:26:15.271Z,61.81
2023-03-17T01:27:07.359Z,62.08
2023-03-17T01:28:00.098Z,62.21
2023-03-17T01:28:51.596Z,62.12
2023-03-17T01:29:43.112Z,61.89
2023-03-17T01:30:38.384Z,62.05
2023-03-17T01:31:30.691Z,62.19
2023-03-17T01:32:22.789Z,62.09
2023-03-17T01:33:15.966Z,62.20
2023-03-17T01:34:07.552Z,62.08
2023-03-17T01:34:59.173Z,62.68
2023-03-17T01:35:51.741Z,61.82
2023-03-17T01:36:43.584Z,61.69
2023-03-17T01:37:35.082Z,62.01
2023-03-17T01:38:26.740Z,62.39
2023-03-17T01:39:18.257Z,61.96
2023-03-17T01:40:17.206Z,62.40
2023-03-17T01:41:08.889Z,62.32
2023-03-17T01:42:01.461Z,61.91
2023-03-17T01:43:10.795Z,62.42
2023-03-17T01:44:02.548Z,62.65
2023-03-17T01:44:58.039Z,62.63
2023-03-17T01:46:14.677Z,63.06
2023-03-17T01:47:07.089Z,62.35
2023-03-17T01:47:59.085Z,62.74
2023-03-17T01:48:57.106Z,62.43
2023-03-17T01:49:49.233Z,62.49
2023-03-17T01:50:42.430Z,62.65
2023-03-17T01:51:44.544Z,62.36
2023-03-17T01:52:39.614Z,62.37
2023-03-17T01:53:32.348Z,62.44
2023-03-17T01:54:34.638Z,61.96
2023-03-17T01:55:26.678Z,61.56
2023-03-17T01:56:19.417Z,61.44
2023-03-17T01:57:19.978Z,61.76
2023-03-17T01:58:13.643Z,61.97
2023-03-17T01:59:10.532Z,62.10
2023-03-17T02:00:09.002Z,62.03
2023-03-17T02:01:07.971Z,62.14
2023-03-17T02:02:08.658Z,61.70
2023-03-17T02:03:00.436Z,62.02
2023-03-17T02:03:53.841Z,61.86
2023-03-17T02:04:45.688Z,62.00
2023-03-17T02:05:39.768Z,62.18
2023-03-17T02:06:32.422Z,62.42
2023-03-17T02:07:26.677Z,62.23
2023-03-17T02:08:18.703Z,62.52
2023-03-17T02:09:10.469Z,62.78
2023-03-17T02:10:04.344Z,62.53
2023-03-17T02:10:57.258Z,62.47
2023-03-17T02:11:50.595Z,61.99
2023-03-17T02:12:45.592Z,62.46
2023-03-17T02:13:38.409Z,62.37
2023-03-17T02:14:30.177Z,62.17
2023-03-17T02:15:22.614Z,62.45
2023-03-17T02:16:17.494Z,62.53
2023-03-17T02:17:12.809Z,62.34
2023-03-17T02:18:09.467Z,62.22
2023-03-17T02:19:02.065Z,62.53
2023-03-17T02:19:55.533Z,62.66
2023-03-17T02:20:47.850Z,62.14
2023-03-17T02:21:45.551Z,62.36
2023-03-17T02:22:38.207Z,62.13
2023-03-17T02:23:30.532Z,62.01
2023-03-17T02:24:41.414Z,61.89
2023-03-17T02:25:36.194Z,61.56
2023-03-17T02:26:33.346Z,62.42
2023-03-17T02:27:35.423Z,61.85
2023-03-17T02:28:31.012Z,61.80
2023-03-17T02:29:23.485Z,62.17
2023-03-17T02:30:19.058Z,62.34
2023-03-17T02:31:11.016Z,62.46
2023-03-17T02:32:02.795Z,62.03
2023-03-17T02:32:54.731Z,61.88
2023-03-17T02:33:46.797Z,61.89
2023-03-17T02:34:39.085Z,62.09
2023-03-17T02:35:31.326Z,62.26
2023-03-17T02:36:23.686Z,62.69
2023-03-17T02:37:17.149Z,62.65
2023-03-17T02:38:08.721Z,62.76
2023-03-17T02:39:01.056Z,62.70
2023-03-17T02:39:55.031Z,63.00
2023-03-17T02:40:46.663Z,62.08
2023-03-17T02:41:38.312Z,62.43
2023-03-17T02:42:29.833Z,62.46
2023-03-17T02:43:23.570Z,61.22
2023-03-17T02:44:15.138Z,61.64
2023-03-17T02:45:09.201Z,61.46
2023-03-17T02:46:01.203Z,61.90
2023-03-17T02:46:52.828Z,61.83
2023-03-17T02:47:44.362Z,61.75
2023-03-17T02:48:36.695Z,61.87
2023-03-17T02:49:30.544Z,61.94
2023-03-17T02:50:25.534Z,62.21
2023-03-17T02:51:19.589Z,62.97
2023-03-17T02:52:11.986Z,62.66
2023-03-17T02:53:03.531Z,62.40
2023-03-17T02:53:55.136Z,62.49
2023-03-17T02:54:46.601Z,63.19
2023-03-17T02:55:38.437Z,63.18
2023-03-17T02:56:30.130Z,62.78
2023-03-17T02:57:21.986Z,62.79
2023-03-17T02:58:13.495Z,62.76
2023-03-17T02:59:05.568Z,62.57
2023-03-17T02:59:57.106Z,62.79
2023-03-17T03:00:49.696Z,62.46
2023-03-17T03:01:41.280Z,62.25
2023-03-17T03:02:33.265Z,62.19
2023-03-17T03:03:24.857Z,62.29
2023-03-17T03:04:17.408Z,62.80
2023-03-17T03:05:09.560Z,62.70
2023-03-17T03:06:03.140Z,62.91
2023-03-17T03:06:56.878Z,63.18
2023-03-17T03:07:48.345Z,63.27
2023-03-17T03:08:39.934Z,63.17
2023-03-17T03:09:31.853Z,63.37
2023-03-17T03:10:23.452Z,64.12
2023-03-17T03:11:18.367Z,64.09
2023-03-17T03:12:11.085Z,64.03
2023-03-17T03:13:03.048Z,63.99
2023-03-17T03:13:54.657Z,63.83
2023-03-17T03:14:46.150Z,63.77
2023-03-17T03:15:38.153Z,64.12
2023-03-17T03:16:29.783Z,64.30
2023-03-17T03:17:21.919Z,64.81
2023-03-17T03:18:13.661Z,64.62
2023-03-17T03:19:05.974Z,64.49
2023-03-17T03:19:57.867Z,64.76
2023-03-17T03:20:49.864Z,64.21
2023-03-17T03:21:41.491Z,64.18
2023-03-17T03:22:32.982Z,63.58
2023-03-17T03:23:24.459Z,63.77
2023-03-17T03:24:16.003Z,63.83
2023-03-17T03:25:08.593Z,64.40
2023-03-17T03:26:00.345Z,64.18
2023-03-17T03:26:52.105Z,63.81
2023-03-17T03:27:43.743Z,63.25
2023-03-17T03:28:35.314Z,63.20
2023-03-17T03:29:27.208Z,63.72
2023-03-17T03:30:19.194Z,64.05
2023-03-17T03:31:11.717Z,63.51
2023-03-17T03:32:03.423Z,63.50
2023-03-17T03:32:55.116Z,63.42
2023-03-17T03:33:46.676Z,63.39
2023-03-17T03:34:38.321Z,63.28
2023-03-17T03:35:30.242Z,63.57
2023-03-17T03:36:22.465Z,63.89
2023-03-17T03:37:13.949Z,64.10
2023-03-17T03:38:06.948Z,64.15
2023-03-17T03:38:58.642Z,64.35
2023-03-17T03:39:50.122Z,64.30
2023-03-17T03:40:42.235Z,64.28
2023-03-17T03:41:33.730Z,63.97
2023-03-17T03:42:25.476Z,64.00
2023-03-17T03:43:23.485Z,63.96
2023-03-17T03:44:15.432Z,63.94
2023-03-17T03:45:07.694Z,64.08
2023-03-17T03:45:59.248Z,64.30
2023-03-17T03:46:51.733Z,63.75
2023-03-17T03:47:43.436Z,64.10
2023-03-17T03:48:35.042Z,63.87
2023-03-17T03:49:26.524Z,64.09
2023-03-17T03:50:18.541Z,64.04
2023-03-17T03:51:10.416Z,63.82
2023-03-17T03:52:01.986Z,64.17
2023-03-17T03:52:53.483Z,64.16
2023-03-17T03:53:45.143Z,62.88
2023-03-17T03:54:37.341Z,63.79
2023-03-17T03:55:28.996Z,63.91
2023-03-17T03:56:20.737Z,63.86
2023-03-17T03:57:12.351Z,63.78
2023-03-17T03:58:03.945Z,63.92
2023-03-17T03:58:56.388Z,64.35
2023-03-17T03:59:47.876Z,64.46
2023-03-17T04:00:39.660Z,64.51
2023-03-17T04:01:31.381Z,64.83
2023-03-17T04:02:23.387Z,65.03
2023-03-17T04:03:16.501Z,64.50
2023-03-17T04:04:08.008Z,64.16
2023-03-17T04:04:59.935Z,63.81
2023-03-17T04:05:51.467Z,63.60
2023-03-17T04:06:44.354Z,64.13
2023-03-17T04:07:37.095Z,64.13
2023-03-17T04:08:28.669Z,64.04
2023-03-17T04:09:20.205Z,64.47
2023-03-17T04:10:13.280Z,64.32
2023-03-17T04:11:04.935Z,64.73
2023-03-17T04:11:56.422Z,64.69
2023-03-17T04:12:47.948Z,64.33
2023-03-17T04:13:39.484Z,64.65
2023-03-17T04:14:30.997Z,64.07
2023-03-17T04:15:23.033Z,64.40
2023-03-17T04:16:14.648Z,64.55
2023-03-17T04:17:06.129Z,63.79
2023-03-17T04:17:57.692Z,64.26
2023-03-17T04:18:49.370Z,64.23
2023-03-17T04:19:41.329Z,64.10
2023-03-17T04:20:33.294Z,64.11
2023-03-17T04:21:24.901Z,64.12
2023-03-17T04:22:16.399Z,64.24
2023-03-17T04:23:07.925Z,63.97
2023-03-17T04:23:59.430Z,64.02
2023-03-17T04:24:50.980Z,64.07
2023-03-17T04:25:42.711Z,64.77
2023-03-17T04:26:34.458Z,64.39
2023-03-17T04:27:26.980Z,64.47
2023-03-17T04:28:19.382Z,64.25
2023-03-17T04:29:15.505Z,64.83
2023-03-17T04:30:10.718Z,64.48
2023-03-17T04:31:02.323Z,64.28
2023-03-17T04:31:53.929Z,64.67
2023-03-17T04:32:46.343Z,64.66
2023-03-17T04:33:38.291Z,64.47
2023-03-17T04:34:29.855Z,64.49
2023-03-17T04:35:25.255Z,64.10
2023-03-17T04:36:22.155Z,64.21
2023-03-17T04:37:13.906Z,64.26
2023-03-17T04:38:05.400Z,64.15
2023-03-17T04:38:56.874Z,64.38
2023-03-17T04:39:48.369Z,64.74
2023-03-17T04:40:39.868Z,64.52
2023-03-17T04:41:31.397Z,64.67
2023-03-17T04:42:22.928Z,64.81
2023-03-17T04:43:14.421Z,65.11
2023-03-17T04:44:06.291Z,65.28
2023-03-17T04:44:57.731Z,65.15
2023-03-17T04:45:49.291Z,64.95
2023-03-17T04:46:40.887Z,64.85
2023-03-17T04:47:32.821Z,64.84
2023-03-17T04:48:24.330Z,64.91
2023-03-17T04:49:16.290Z,64.64
2023-03-17T04:50:09.536Z,64.91
2023-03-17T04:51:01.088Z,64.75
2023-03-17T04:51:52.615Z,64.40
2023-03-17T04:52:44.239Z,63.68
2023-03-17T04:53:35.827Z,64.04
2023-03-17T04:54:27.335Z,64.02
2023-03-17T04:55:18.991Z,64.07
2023-03-17T04:56:11.811Z,64.02
2023-03-17T04:57:03.722Z,64.29
2023-03-17T04:57:55.285Z,64.70
2023-03-17T04:58:46.752Z,64.52
2023-03-17T04:59:38.351Z,64.56
2023-03-17T05:00:30.107Z,64.23
2023-03-17T05:01:22.075Z,64.52
2023-03-17T05:02:13.870Z,64.54
2023-03-17T05:03:19.988Z,64.11
2023-03-17T05:04:30.866Z,64.15
2023-03-17T05:05:23.296Z,63.53
2023-03-17T05:06:15.188Z,63.43
2023-03-17T05:07:06.679Z,63.83
2023-03-17T05:07:58.566Z,63.91
2023-03-17T05:08:50.163Z,64.03
2023-03-17T05:09:43.215Z,63.85
2023-03-17T05:10:34.696Z,63.85
2023-03-17T05:11:26.186Z,63.67
2023-03-17T05:12:17.672Z,63.93
2023-03-17T05:13:09.178Z,63.92
2023-03-17T05:14:00.916Z,64.19
2023-03-17T05:14:52.468Z,64.16
2023-03-17T05:15:48.043Z,64.08
2023-03-17T05:16:39.688Z,64.15
2023-03-17T05:17:31.483Z,64.00
2023-03-17T05:18:26.211Z,63.82
2023-03-17T05:19:19.037Z,63.85
2023-03-17T05:20:11.107Z,64.51
2023-03-17T05:21:03.043Z,64.36
2023-03-17T05:21:54.819Z,64.20
2023-03-17T05:22:46.542Z,64.23
2023-03-17T05:23:38.777Z,64.47
2023-03-17T05:24:30.517Z,64.38
2023-03-17T05:25:22.561Z,64.13
2023-03-17T05:26:14.121Z,64.17
2023-03-17T05:27:05.989Z,63.83
2023-03-17T05:27:58.644Z,63.36
2023-03-17T05:28:50.196Z,63.90
2023-03-17T05:29:42.300Z,64.09
2023-03-17T05:30:36.539Z,64.53
2023-03-17T05:31:28.229Z,64.22
2023-03-17T05:32:19.814Z,63.93
2023-03-17T05:33:12.051Z,63.98
2023-03-17T05:34:04.506Z,63.99
2023-03-17T05:34:56.020Z,64.22
2023-03-17T05:35:47.644Z,64.42
2023-03-17T05:36:39.389Z,64.69
2023-03-17T05:37:31.062Z,64.50
2023-03-17T05:38:22.650Z,64.73
2023-03-17T05:39:14.711Z,64.84
2023-03-17T05:40:06.533Z,64.41
2023-03-17T05:40:58.082Z,64.78
2023-03-17T05:41:50.379Z,64.94
2023-03-17T05:42:42.542Z,64.61
2023-03-17T05:43:34.056Z,63.99
2023-03-17T05:44:25.617Z,63.89
2023-03-17T05:45:17.498Z,64.27
2023-03-17T05:46:09.232Z,64.25
2023-03-17T05:47:01.859Z,64.49
2023-03-17T05:47:53.365Z,64.23
2023-03-17T05:48:44.868Z,64.17
2023-03-17T05:49:36.851Z,64.44
2023-03-17T05:50:28.411Z,64.57
2023-03-17T05:51:20.388Z,64.59
2023-03-17T05:52:12.030Z,64.50
2023-03-17T05:53:03.815Z,64.49
2023-03-17T05:53:55.925Z,64.90
2023-03-17T05:54:48.950Z,64.88
2023-03-17T05:55:40.601Z,64.64
2023-03-17T05:56:33.702Z,64.79
2023-03-17T05:57:25.456Z,64.47
2023-03-17T05:58:17.055Z,63.47
2023-03-17T05:59:09.623Z,64.15
2023-03-17T06:00:01.212Z,63.84
2023-03-17T06:00:52.855Z,63.87
2023-03-17T06:01:45.326Z,64.09
2023-03-17T06:02:36.962Z,63.94
2023-03-17T06:03:28.501Z,63.85
2023-03-17T06:04:20.262Z,63.92
2023-03-17T06:05:12.248Z,63.34
2023-03-17T06:06:04.631Z,63.56
2023-03-17T06:06:56.112Z,63.50
2023-03-17T06:07:54.826Z,63.89
2023-03-17T06:08:47.812Z,63.36
2023-03-17T06:09:40.122Z,63.63
2023-03-17T06:10:32.221Z,63.50
2023-03-17T06:11:24.104Z,63.52
2023-03-17T06:12:16.074Z,63.57
2023-03-17T06:13:07.650Z,63.53
2023-03-17T06:13:59.211Z,63.41
2023-03-17T06:14:50.856Z,63.41
2023-03-17T06:15:43.046Z,63.23
2023-03-17T06:16:34.673Z,63.54
2023-03-17T06:17:26.387Z,63.72
2023-03-17T06:18:19.733Z,63.83
2023-03-17T06:19:11.523Z,63.45
2023-03-17T06:20:05.335Z,63.45
2023-03-17T06:20:57.188Z,63.31
2023-03-17T06:21:48.835Z,63.34
2023-03-17T06:22:51.692Z,63.64
2023-03-17T06:23:52.429Z,63.71
2023-03-17T06:24:43.961Z,63.62
2023-03-17T06:25:35.737Z,63.37
2023-03-17T06:26:27.387Z,63.24
2023-03-17T06:27:19.508Z,63.32
2023-03-17T06:28:11.628Z,63.95
2023-03-17T06:29:09.731Z,64.01
2023-03-17T06:30:01.386Z,63.68
2023-03-17T06:30:53.016Z,63.45
2023-03-17T06:31:50.238Z,63.25
2023-03-17T06:32:41.897Z,63.18
2023-03-17T06:33:34.450Z,63.36
2023-03-17T06:34:26.331Z,62.87
2023-03-17T06:35:18.080Z,62.91
2023-03-17T06:36:10.202Z,63.39
2023-03-17T06:37:01.747Z,63.03
2023-03-17T06:37:53.997Z,62.34
2023-03-17T06:38:46.137Z,62.08
2023-03-17T06:39:37.774Z,61.93
2023-03-17T06:40:30.192Z,61.77
2023-03-17T06:41:22.265Z,62.25
2023-03-17T06:42:14.293Z,61.81
2023-03-17T06:43:05.838Z,61.75
2023-03-17T06:43:57.357Z,61.90
2023-03-17T06:44:52.185Z,61.14
2023-03-17T06:45:43.669Z,61.41
2023-03-17T06:46:36.565Z,61.04
2023-03-17T06:47:28.216Z,61.00
2023-03-17T06:48:19.893Z,61.46
2023-03-17T06:49:13.534Z,61.39
2023-03-17T06:50:09.953Z,60.73
2023-03-17T06:51:02.610Z,60.39
2023-03-17T06:51:54.269Z,60.69
2023-03-17T06:52:46.995Z,60.78
2023-03-17T06:53:38.485Z,60.89
2023-03-17T06:54:30.195Z,60.59
2023-03-17T06:55:21.995Z,61.27
2023-03-17T06:56:28.793Z,61.05
2023-03-17T06:57:21.607Z,60.63
2023-03-17T06:58:13.374Z,60.71
2023-03-17T06:59:08.397Z,59.85
2023-03-17T07:00:03.264Z,60.00
2023-03-17T07:01:01.284Z,60.44
2023-03-17T07:01:54.141Z,59.90
2023-03-17T07:02:46.104Z,59.85
2023-03-17T07:03:38.605Z,60.39
2023-03-17T07:04:31.175Z,60.43
2023-03-17T07:05:23.094Z,60.05
2023-03-17T07:06:14.578Z,60.25
2023-03-17T07:07:06.536Z,59.67
2023-03-17T07:07:58.039Z,59.12
2023-03-17T07:08:50.840Z,59.80
2023-03-17T07:09:42.380Z,58.98
2023-03-17T07:10:34.728Z,58.65
2023-03-17T07:11:26.320Z,59.19
2023-03-17T07:12:17.962Z,59.95
2023-03-17T07:13:10.185Z,59.33
2023-03-17T07:14:02.664Z,59.34
2023-03-17T07:14:54.202Z,59.99
2023-03-17T07:15:45.754Z,60.50
2023-03-17T07:16:37.722Z,59.02
2023-03-17T07:17:30.085Z,59.57
2023-03-17T07:18:21.594Z,59.38
2023-03-17T07:19:13.292Z,59.48
2023-03-17T07:20:06.407Z,60.23
2023-03-17T07:20:58.661Z,60.00
2023-03-17T07:21:50.233Z,59.86
2023-03-17T07:22:42.342Z,59.21
2023-03-17T07:23:33.887Z,59.31
2023-03-17T07:24:26.157Z,59.28
2023-03-17T07:25:17.741Z,59.03
2023-03-17T07:26:09.697Z,58.99
2023-03-17T07:27:01.294Z,59.12
2023-03-17T07:27:53.386Z,58.65
2023-03-17T07:28:44.967Z,58.62
2023-03-17T07:29:36.613Z,59.27
2023-03-17T07:30:28.613Z,59.01
2023-03-17T07:31:20.172Z,58.55
2023-03-17T07:32:11.813Z,58.94
2023-03-17T07:33:04.067Z,58.52
2023-03-17T07:33:57.455Z,57.89
2023-03-17T07:34:49.328Z,57.91
2023-03-17T07:35:41.577Z,58.28
2023-03-17T07:36:33.908Z,58.31
2023-03-17T07:37:25.568Z,58.39
2023-03-17T07:38:18.811Z,58.78
2023-03-17T07:39:12.055Z,59.58
2023-03-17T07:40:05.074Z,58.37
2023-03-17T07:40:56.673Z,58.70
2023-03-17T07:41:52.781Z,57.71
2023-03-17T07:42:45.358Z,57.67
2023-03-17T07:43:38.360Z,58.13
2023-03-17T07:44:30.419Z,58.38
2023-03-17T07:45:22.014Z,57.34
2023-03-17T07:46:14.420Z,57.72
2023-03-17T07:47:06.119Z,57.64
2023-03-17T07:47:57.578Z,58.51
2023-03-17T07:48:49.295Z,58.05
2023-03-17T07:49:42.319Z,56.92
2023-03-17T07:50:35.540Z,57.52
2023-03-17T07:51:28.064Z,55.83
2023-03-17T07:52:19.667Z,56.38
2023-03-17T07:53:11.342Z,55.56
2023-03-17T07:54:06.348Z,55.13
2023-03-17T07:54:58.370Z,56.12
2023-03-17T07:55:49.952Z,56.26
2023-03-17T07:56:42.380Z,56.95
2023-03-17T07:57:34.512Z,56.00
2023-03-17T07:58:26.625Z,56.46
2023-03-17T07:59:18.835Z,55.70
2023-03-17T08:00:13.394Z,55.82
2023-03-17T08:01:06.766Z,55.72
2023-03-17T08:02:00.215Z,55.45
2023-03-17T08:03:07.089Z,55.04
2023-03-17T08:04:01.668Z,55.41
2023-03-17T08:04:53.928Z,55.11
2023-03-17T08:05:45.613Z,54.91
2023-03-17T08:06:37.432Z,54.87
2023-03-17T08:07:31.526Z,55.09
2023-03-17T08:08:24.692Z,55.14
2023-03-17T08:09:16.353Z,54.30
2023-03-17T08:10:09.591Z,54.33
2023-03-17T08:11:03.867Z,55.10
2023-03-17T08:11:55.427Z,55.31
2023-03-17T08:12:51.727Z,54.73
2023-03-17T08:13:43.463Z,54.31
2023-03-17T08:14:34.979Z,54.28
2023-03-17T08:15:26.708Z,54.71
2023-03-17T08:16:18.402Z,55.48
2023-03-17T08:17:10.476Z,54.50
2023-03-17T08:18:02.378Z,54.26
2023-03-17T08:18:53.995Z,53.91
2023-03-17T08:19:45.623Z,53.16
2023-03-17T08:20:37.820Z,53.45
2023-03-17T08:21:30.872Z,54.04
2023-03-17T08:22:23.758Z,53.96
2023-03-17T08:23:15.481Z,53.60
2023-03-17T08:24:07.364Z,53.51
2023-03-17T08:24:58.869Z,52.81
2023-03-17T08:25:50.382Z,53.40
2023-03-17T08:26:42.589Z,53.92
2023-03-17T08:27:34.188Z,54.00
2023-03-17T08:28:27.099Z,52.58
2023-03-17T08:29:18.933Z,53.01
2023-03-17T08:30:12.544Z,53.02
2023-03-17T08:31:15.959Z,53.11
2023-03-17T08:32:08.115Z,53.31
2023-03-17T08:32:59.745Z,53.06
2023-03-17T08:33:54.266Z,52.28
2023-03-17T08:34:46.161Z,51.13
2023-03-17T08:35:41.462Z,52.01
2023-03-17T08:36:33.160Z,51.38
2023-03-17T08:37:24.700Z,52.24
2023-03-17T08:38:16.344Z,52.41
2023-03-17T08:39:10.373Z,51.38
2023-03-17T08:40:01.953Z,51.50
2023-03-17T08:40:53.497Z,51.50
2023-03-17T08:41:45.025Z,51.04
2023-03-17T08:42:37.605Z,50.58
2023-03-17T08:43:29.229Z,50.64
2023-03-17T08:44:21.768Z,50.48
2023-03-17T08:45:15.262Z,51.46
2023-03-17T08:46:20.286Z,51.76
2023-03-17T08:47:11.998Z,50.47
2023-03-17T08:48:04.162Z,50.39
2023-03-17T08:48:58.001Z,50.12
2023-03-17T08:49:50.301Z,50.40
2023-03-17T08:50:42.160Z,50.88
2023-03-17T08:51:36.861Z,51.43
2023-03-17T08:52:28.785Z,51.42
2023-03-17T08:53:20.651Z,51.03
2023-03-17T08:54:12.205Z,50.27
2023-03-17T08:55:03.850Z,51.00
2023-03-17T08:55:59.160Z,50.83
2023-03-17T08:56:51.161Z,50.45
2023-03-17T08:57:44.663Z,50.25
2023-03-17T08:58:39.827Z,49.53
2023-03-17T08:59:31.415Z,50.35
2023-03-17T09:00:23.274Z,50.12
2023-03-17T09:01:15.439Z,49.53
2023-03-17T09:02:11.189Z,49.12
2023-03-17T09:03:03.354Z,49.67
2023-03-17T09:03:55.798Z,48.85
2023-03-17T09:04:48.224Z,48.43
2023-03-17T09:05:39.712Z,49.41
2023-03-17T09:06:31.535Z,49.43
2023-03-17T09:07:23.041Z,48.06
2023-03-17T09:08:14.593Z,49.19
2023-03-17T09:09:06.770Z,50.04
2023-03-17T09:09:59.053Z,50.32
2023-03-17T09:10:51.837Z,50.66
2023-03-17T09:11:43.453Z,51.29
2023-03-17T09:12:35.319Z,49.23
2023-03-17T09:13:27.484Z,49.74
2023-03-17T09:14:19.088Z,48.70
2023-03-17T09:15:12.097Z,49.16
2023-03-17T09:16:03.964Z,48.92
2023-03-17T09:16:56.486Z,50.02
2023-03-17T09:17:48.013Z,48.75
2023-03-17T09:18:39.548Z,48.72
2023-03-17T09:19:31.110Z,48.31
2023-03-17T09:20:22.878Z,48.82
2023-03-17T09:21:16.062Z,49.68
2023-03-17T09:22:07.931Z,49.95
2023-03-17T09:23:00.666Z,49.81
2023-03-17T09:23:52.154Z,49.61
2023-03-17T09:24:43.731Z,49.38
2023-03-17T09:25:37.188Z,50.10
2023-03-17T09:26:28.840Z,50.34
2023-03-17T09:27:20.363Z,50.05
2023-03-17T09:28:12.712Z,50.85
2023-03-17T09:29:05.194Z,49.57
2023-03-17T09:29:56.669Z,49.54
2023-03-17T09:30:48.497Z,50.23
2023-03-17T09:31:41.509Z,50.08
2023-03-17T09:32:33.109Z,50.20
2023-03-17T09:33:24.978Z,48.63
2023-03-17T09:34:16.558Z,50.23
2023-03-17T09:35:08.714Z,50.00
2023-03-17T09:36:00.589Z,49.42
2023-03-17T09:36:55.934Z,49.94
2023-03-17T09:37:48.420Z,49.00
2023-03-17T09:38:40.772Z,49.38
2023-03-17T09:39:33.345Z,49.02
2023-03-17T09:40:32.891Z,49.53
2023-03-17T09:41:50.651Z,49.38
2023-03-17T09:42:56.473Z,48.64
2023-03-17T09:44:18.743Z,48.70
2023-03-17T09:45:26.450Z,49.19
2023-03-17T09:46:48.349Z,50.18
2023-03-17T09:47:48.657Z,49.32
2023-03-17T09:49:03.872Z,49.61
2023-03-17T09:49:59.883Z,49.77
2023-03-17T09:51:18.811Z,47.91
2023-03-17T09:52:18.558Z,48.58
2023-03-17T09:53:22.497Z,48.13
2023-03-17T09:54:31.256Z,47.85
2023-03-17T09:55:28.860Z,48.32
2023-03-17T09:56:21.012Z,48.69
2023-03-17T09:57:22.004Z,48.42
2023-03-17T09:58:14.154Z,48.31
2023-03-17T09:59:28.943Z,47.62
2023-03-17T10:00:29.043Z,46.53
2023-03-17T10:01:21.905Z,47.20
2023-03-17T10:02:22.067Z,47.21
2023-03-17T10:03:14.071Z,46.15
2023-03-17T10:04:06.359Z,47.42
2023-03-17T10:04:58.411Z,47.19
2023-03-17T10:05:50.177Z,47.70
2023-03-17T10:06:46.578Z,47.15
2023-03-17T10:07:50.407Z,47.80
2023-03-17T10:08:53.950Z,46.71
2023-03-17T10:10:01.208Z,45.93
2023-03-17T10:11:18.720Z,46.90
2023-03-17T10:12:29.194Z,46.18
2023-03-17T10:13:23.335Z,46.53
2023-03-17T10:14:49.011Z,48.16
2023-03-17T10:15:51.654Z,46.74
2023-03-17T10:16:54.553Z,46.78
2023-03-17T10:17:47.262Z,46.99
2023-03-17T10:18:48.460Z,46.11
2023-03-17T10:19:43.231Z,45.09
2023-03-17T10:20:46.699Z,45.40
2023-03-17T10:21:50.064Z,45.09
2023-03-17T10:23:02.148Z,45.96
2023-03-17T10:23:57.349Z,45.91
2023-03-17T10:25:01.220Z,45.34
2023-03-17T10:26:00.837Z,46.07
2023-03-17T10:26:57.889Z,46.01
2023-03-17T10:28:11.408Z,45.57
2023-03-17T10:29:04.322Z,44.98
2023-03-17T10:29:56.965Z,44.67
2023-03-17T10:30:48.640Z,44.91
2023-03-17T10:31:40.655Z,44.38
2023-03-17T10:32:38.981Z,44.55
2023-03-17T10:33:30.964Z,44.70
2023-03-17T10:34:26.681Z,44.47
2023-03-17T10:35:19.108Z,45.11
2023-03-17T10:36:15.771Z,44.72
2023-03-17T10:37:13.301Z,45.21
2023-03-17T10:38:24.469Z,45.65
2023-03-17T10:39:21.854Z,45.50
2023-03-17T10:40:25.349Z,44.99
2023-03-17T10:41:16.821Z,45.25
2023-03-17T10:42:23.730Z,45.33
2023-03-17T10:43:22.043Z,45.60
2023-03-17T10:44:28.196Z,45.50
2023-03-17T10:45:32.386Z,45.38
2023-03-17T10:46:26.403Z,45.02
2023-03-17T10:47:26.143Z,45.39
2023-03-17T10:48:18.932Z,45.84
2023-03-17T10:49:17.254Z,44.15
2023-03-17T10:50:14.594Z,44.29
2023-03-17T10:51:11.016Z,45.87
2023-03-17T10:52:08.136Z,45.00
2023-03-17T10:53:30.624Z,45.35
2023-03-17T10:54:25.278Z,45.61
2023-03-17T10:55:21.317Z,46.14
2023-03-17T10:56:24.970Z,45.69
2023-03-17T10:57:18.341Z,46.41
2023-03-17T10:58:09.846Z,45.38
2023-03-17T10:59:08.025Z,45.67
2023-03-17T11:00:02.079Z,45.74
2023-03-17T11:01:02.752Z,44.67
2023-03-17T11:02:05.613Z,45.24
2023-03-17T11:02:59.775Z,45.03
2023-03-17T11:03:51.511Z,45.69
2023-03-17T11:04:43.277Z,46.45
2023-03-17T11:05:34.807Z,46.57
2023-03-17T11:06:39.130Z,45.72
2023-03-17T11:07:39.830Z,45.42
2023-03-17T11:08:39.099Z,46.39
2023-03-17T11:09:35.303Z,46.51
2023-03-17T11:10:27.840Z,46.81
2023-03-17T11:11:29.641Z,46.03
2023-03-17T11:12:26.374Z,45.89
2023-03-17T11:13:17.971Z,45.40
2023-03-17T11:14:15.396Z,46.63
2023-03-17T11:15:14.050Z,46.39
2023-03-17T11:16:24.000Z,46.58
2023-03-17T11:17:39.737Z,46.22
2023-03-17T11:18:37.301Z,45.37
2023-03-17T11:20:04.803Z,45.75
2023-03-17T11:21:09.601Z,45.13
2023-03-17T11:22:30.509Z,45.56
2023-03-17T11:23:53.816Z,44.96
2023-03-17T11:24:59.196Z,45.95
2023-03-17T11:26:08.331Z,46.18
2023-03-17T11:27:20.625Z,45.72
2023-03-17T11:28:20.552Z,46.74
2023-03-17T11:30:01.462Z,46.21
2023-03-17T11:31:13.110Z,45.57
2023-03-17T11:32:46.223Z,45.17
2023-03-17T11:34:04.262Z,46.42
2023-03-17T11:35:12.665Z,45.45
2023-03-17T11:36:33.543Z,45.69
2023-03-17T11:37:51.947Z,45.16
2023-03-17T11:38:58.240Z,44.90
2023-03-17T11:40:19.340Z,45.82
2023-03-17T11:42:07.257Z,45.73
2023-03-17T11:43:34.176Z,45.60